Time;durP1;ratioP1;P1;durP2;ratioP2;P2;SDS_P1;SDS_P2;PMS_P1;PMS_P2;Temp;Humidity;BMP_temperature;BMP_pressure;BME280_temperature;BME280_humidity;BME280_pressure;Samples;Min_cycle;Max_cycle;Signal;HPM_P1;HPM_P2
2022/06/07 00:01:38;;;;;;;13.93;8.68;;;12.50;99.90;;;;;;5073899;28;20473;-66
2022/06/07 00:04:04;;;;;;;12.88;8.05;;;12.40;99.90;;;;;;5085937;28;20166;-66
2022/06/07 00:06:31;;;;;;;13.90;8.48;;;12.40;99.90;;;;;;5072438;28;20046;-66
2022/06/07 00:08:56;;;;;;;13.40;8.52;;;12.70;99.90;;;;;;5074732;28;20095;-66
2022/06/07 00:11:23;;;;;;;19.67;9.45;;;12.40;99.90;;;;;;5074152;28;20855;-66
2022/06/07 00:13:49;;;;;;;11.65;8.82;;;12.40;99.90;;;;;;5072935;28;20050;-66
2022/06/07 00:16:16;;;;;;;14.85;8.68;;;12.50;99.90;;;;;;5077538;28;20035;-66
2022/06/07 00:18:43;;;;;;;13.63;9.88;;;12.40;99.90;;;;;;5036932;28;1084779;-66
2022/06/07 00:21:08;;;;;;;13.38;9.57;;;12.50;99.90;;;;;;5090927;28;20113;-66
2022/06/07 00:23:34;;;;;;;14.45;9.25;;;12.50;99.90;;;;;;5072596;28;20043;-66
2022/06/07 00:26:01;;;;;;;14.13;10.63;;;12.50;99.90;;;;;;5073893;28;20040;-66
2022/06/07 00:28:28;;;;;;;16.95;10.75;;;12.50;99.90;;;;;;5072544;28;20052;-66
2022/06/07 00:30:55;;;;;;;13.65;11.05;;;12.40;99.90;;;;;;5091201;28;20136;-66
2022/06/07 00:33:22;;;;;;;16.52;12.55;;;12.50;99.90;;;;;;5055430;28;20466;-65
2022/06/07 00:35:48;;;;;;;15.90;12.00;;;12.70;99.90;;;;;;5106439;27;20131;-66
2022/06/07 00:38:15;;;;;;;16.90;13.07;;;12.60;99.90;;;;;;5073222;28;20066;-66
2022/06/07 00:40:42;;;;;;;16.70;12.82;;;12.50;99.90;;;;;;5077847;28;20047;-66
2022/06/07 00:43:08;;;;;;;19.60;12.73;;;12.50;99.90;;;;;;5073420;28;20128;-66
2022/06/07 00:45:36;;;;;;;15.48;13.77;;;12.50;99.90;;;;;;5074157;28;20055;-66
2022/06/07 00:48:04;;;;;;;14.25;12.88;;;12.60;99.90;;;;;;5091829;28;20437;-66
2022/06/07 00:50:47;;;;;;;18.35;12.63;;;12.60;99.90;;;;;;5093228;28;20505;-66
2022/06/07 00:53:33;;;;;;;17.08;13.48;;;12.50;99.90;;;;;;5068454;28;20505;-66
2022/06/07 00:55:59;;;;;;;20.85;13.10;;;12.60;99.90;;;;;;5089806;28;20044;-66
2022/06/07 00:58:27;;;;;;;16.08;12.95;;;12.60;99.90;;;;;;5089908;28;20043;-66
2022/06/07 01:00:54;;;;;;;15.13;12.52;;;12.60;99.90;;;;;;5070776;28;20056;-66
2022/06/07 01:03:22;;;;;;;14.40;12.48;;;12.70;99.90;;;;;;5071313;28;20058;-66
2022/06/07 01:05:49;;;;;;;13.77;12.35;;;12.70;99.90;;;;;;5066371;28;20127;-66
2022/06/07 01:10:59;;;;;;;20.58;13.43;;;12.60;99.90;;;;;;5074623;28;20044;-66
2022/06/07 01:13:31;;;;;;;16.67;13.25;;;12.60;99.90;;;;;;5069706;28;20655;-66
2022/06/07 01:16:00;;;;;;;17.70;12.95;;;12.80;99.90;;;;;;5090839;28;20082;-66
2022/06/07 01:18:26;;;;;;;16.95;13.43;;;12.60;99.90;;;;;;5071635;28;20040;-66
2022/06/07 01:21:23;;;;;;;15.68;11.73;;;12.70;99.90;;;;;;5069988;28;21843;-66
2022/06/07 01:23:49;;;;;;;17.30;12.32;;;12.70;99.90;;;;;;5087003;28;20402;-66
2022/06/07 01:26:15;;;;;;;15.20;13.07;;;12.70;99.90;;;;;;5092512;28;20040;-66
2022/06/07 01:28:41;;;;;;;14.55;13.05;;;12.70;99.90;;;;;;5101090;27;20094;-66
2022/06/07 01:31:07;;;;;;;14.27;12.80;;;12.70;99.90;;;;;;5093024;28;20529;-66
2022/06/07 01:33:33;;;;;;;15.00;12.63;;;12.80;99.90;;;;;;5068378;28;20115;-66
2022/06/07 01:36:07;;;;;;;12.85;11.50;;;12.80;99.90;;;;;;5073270;28;20051;-66
2022/06/07 01:38:35;;;;;;;12.70;10.93;;;12.80;99.90;;;;;;5088846;28;20027;-66
2022/06/07 01:43:45;;;;;;;15.50;12.27;;;12.80;99.90;;;;;;5103857;27;20049;-66
2022/06/07 01:46:11;;;;;;;12.13;10.93;;;12.80;99.90;;;;;;5107067;27;20502;-66
2022/06/07 01:48:37;;;;;;;11.23;10.10;;;12.80;99.90;;;;;;5089030;28;20043;-66
2022/06/07 01:51:05;;;;;;;13.35;10.27;;;13.00;99.90;;;;;;5090248;28;20379;-66
2022/06/07 01:53:31;;;;;;;14.88;11.25;;;12.90;99.90;;;;;;5071184;28;20485;-66
2022/06/07 01:56:06;;;;;;;13.35;11.43;;;12.80;99.90;;;;;;5090898;28;20391;-66
2022/06/07 01:58:32;;;;;;;15.57;11.60;;;12.90;99.90;;;;;;5089168;28;20042;-66
2022/06/07 02:00:57;;;;;;;15.77;10.85;;;13.00;99.90;;;;;;5074263;28;20044;-66
2022/06/07 02:03:23;;;;;;;12.23;10.85;;;13.00;99.90;;;;;;5073657;28;20172;-66
2022/06/07 02:05:59;;;;;;;15.00;11.65;;;13.00;99.90;;;;;;5069703;28;20046;-66
2022/06/07 02:08:26;;;;;;;12.00;10.75;;;12.90;99.90;;;;;;5089743;28;20044;-66
2022/06/07 02:10:52;;;;;;;13.82;11.07;;;12.90;99.90;;;;;;5089376;28;20040;-66
2022/06/07 02:13:19;;;;;;;13.65;11.65;;;12.90;99.90;;;;;;5073113;28;20545;-66
2022/06/07 02:15:46;;;;;;;17.00;12.68;;;12.90;99.90;;;;;;5090639;28;20123;-66
2022/06/07 02:18:13;;;;;;;16.73;11.80;;;12.90;99.90;;;;;;5087980;28;20036;-66
2022/06/07 02:20:39;;;;;;;16.10;11.93;;;13.00;99.90;;;;;;5087703;28;20039;-66
2022/06/07 02:23:06;;;;;;;12.15;10.65;;;13.00;99.90;;;;;;5090099;28;20028;-66
2022/06/07 02:25:37;;;;;;;13.20;10.50;;;12.90;99.90;;;;;;5090266;28;20054;-66
2022/06/07 02:28:04;;;;;;;14.93;11.25;;;13.10;99.90;;;;;;5091051;28;20067;-66
2022/06/07 02:30:30;;;;;;;17.83;12.93;;;12.90;99.90;;;;;;5071384;28;20491;-66
2022/06/07 02:32:59;;;;;;;15.77;12.35;;;12.90;99.90;;;;;;5104575;28;20079;-66
2022/06/07 02:35:25;;;;;;;14.98;12.90;;;12.90;99.90;;;;;;5068946;28;20157;-66
2022/06/07 02:37:51;;;;;;;13.57;12.18;;;13.00;99.90;;;;;;5074276;28;20074;-66
2022/06/07 02:40:18;;;;;;;16.65;12.38;;;12.90;99.90;;;;;;5073711;28;20401;-66
2022/06/07 02:42:43;;;;;;;18.67;12.98;;;12.90;99.90;;;;;;5074774;28;20051;-66
2022/06/07 02:45:11;;;;;;;17.23;12.70;;;12.90;99.90;;;;;;5075940;28;20603;-66
2022/06/07 02:47:36;;;;;;;15.55;12.63;;;12.90;99.90;;;;;;5080455;28;20044;-66
2022/06/07 02:50:03;;;;;;;15.93;11.93;;;13.00;99.90;;;;;;5073273;28;20044;-66
2022/06/07 02:52:29;;;;;;;14.98;12.50;;;13.00;99.90;;;;;;5092949;28;20389;-66
2022/06/07 02:54:55;;;;;;;16.63;11.85;;;12.90;99.90;;;;;;5090559;28;20051;-66
2022/06/07 02:57:21;;;;;;;16.20;12.60;;;12.90;99.90;;;;;;5073839;28;20035;-66
2022/06/07 02:59:47;;;;;;;16.00;12.35;;;13.20;99.90;;;;;;5104491;28;20058;-66
2022/06/07 03:02:13;;;;;;;14.38;11.77;;;12.90;99.90;;;;;;5088806;28;20044;-66
2022/06/07 03:04:39;;;;;;;14.80;11.90;;;12.90;99.90;;;;;;5067852;28;20064;-66
2022/06/07 03:07:04;;;;;;;15.18;11.88;;;12.90;99.90;;;;;;5092414;28;20465;-66
2022/06/07 03:09:30;;;;;;;17.00;12.65;;;12.90;99.90;;;;;;5088199;28;20064;-66
2022/06/07 03:11:56;;;;;;;12.93;10.77;;;13.00;99.90;;;;;;5090306;28;20047;-66
2022/06/07 03:14:22;;;;;;;17.50;11.45;;;12.90;99.90;;;;;;5093365;28;20490;-66
2022/06/07 03:16:48;;;;;;;18.45;12.77;;;12.90;99.90;;;;;;5076760;28;20045;-66
2022/06/07 03:19:13;;;;;;;16.98;11.85;;;12.90;99.90;;;;;;5093984;28;20035;-66
2022/06/07 03:21:39;;;;;;;14.70;11.68;;;12.90;99.90;;;;;;5090627;28;20444;-66
2022/06/07 03:24:07;;;;;;;15.43;11.95;;;12.90;99.90;;;;;;5089951;28;20098;-66
2022/06/07 03:26:32;;;;;;;13.85;11.43;;;12.90;99.90;;;;;;5093981;28;20033;-66
2022/06/07 03:28:59;;;;;;;16.25;11.73;;;12.90;99.90;;;;;;5091905;28;20039;-66
2022/06/07 03:31:25;;;;;;;15.25;11.52;;;12.90;99.90;;;;;;5067943;28;20466;-66
2022/06/07 03:33:51;;;;;;;17.13;11.38;;;12.90;99.90;;;;;;5092598;28;20118;-66
2022/06/07 03:36:22;;;;;;;13.55;11.68;;;12.90;99.90;;;;;;5093493;28;20035;-66
2022/06/07 03:38:49;;;;;;;13.48;11.52;;;12.90;99.90;;;;;;5073518;28;20047;-66
2022/06/07 03:41:19;;;;;;;16.08;11.70;;;12.90;99.90;;;;;;5077938;28;20113;-66
2022/06/07 03:43:45;;;;;;;16.40;11.73;;;13.00;99.90;;;;;;5106015;27;20173;-66
2022/06/07 03:46:13;;;;;;;17.10;11.20;;;12.90;99.90;;;;;;5061096;28;20036;-66
2022/06/07 03:48:41;;;;;;;16.13;12.23;;;13.00;99.90;;;;;;5072111;28;20035;-66
2022/06/07 03:51:07;;;;;;;15.30;12.77;;;13.20;99.90;;;;;;5108003;27;20048;-66
2022/06/07 03:53:33;;;;;;;14.40;12.15;;;12.90;99.90;;;;;;5072055;28;20124;-66
2022/06/07 03:55:59;;;;;;;20.98;12.00;;;12.90;99.90;;;;;;5075412;28;20495;-66
2022/06/07 03:58:25;;;;;;;15.43;12.43;;;12.90;99.90;;;;;;5093080;28;20047;-66
2022/06/07 04:00:54;;;;;;;15.38;12.05;;;13.00;99.90;;;;;;5090813;28;20044;-66
2022/06/07 04:03:20;;;;;;;14.63;12.23;;;13.00;99.90;;;;;;5075170;28;20039;-66
2022/06/07 04:05:46;;;;;;;13.95;11.32;;;12.90;99.90;;;;;;5095247;28;20023;-66
2022/06/07 04:08:12;;;;;;;14.63;13.07;;;13.00;99.90;;;;;;5074204;28;20371;-66
2022/06/07 04:11:10;;;;;;;16.52;11.88;;;13.00;99.90;;;;;;5107239;27;20482;-66
2022/06/07 04:13:36;;;;;;;13.60;11.88;;;12.90;99.90;;;;;;5100046;27;20059;-66
2022/06/07 04:16:12;;;;;;;15.90;12.32;;;12.90;99.90;;;;;;5070737;28;20044;-65
2022/06/07 04:18:38;;;;;;;17.95;12.07;;;13.00;99.90;;;;;;5086615;28;20040;-66
2022/06/07 04:21:05;;;;;;;13.82;11.93;;;13.00;99.90;;;;;;5069765;28;20077;-66
2022/06/07 04:23:31;;;;;;;13.32;11.52;;;13.00;99.90;;;;;;5073671;28;20115;-66
2022/06/07 04:25:57;;;;;;;14.52;11.77;;;13.00;99.90;;;;;;5106367;27;20048;-66
2022/06/07 04:28:22;;;;;;;18.48;12.20;;;13.10;99.90;;;;;;5105182;27;20043;-66
2022/06/07 04:30:49;;;;;;;18.35;12.38;;;13.00;99.90;;;;;;5091890;28;20048;-66
2022/06/07 04:33:16;;;;;;;13.07;11.68;;;13.00;99.90;;;;;;5089320;28;20120;-66
2022/06/07 04:35:42;;;;;;;17.63;12.40;;;13.00;99.90;;;;;;5070527;28;20031;-66
2022/06/07 04:38:10;;;;;;;16.70;12.05;;;13.10;99.90;;;;;;5086963;28;20031;-65
2022/06/07 04:40:42;;;;;;;13.85;12.40;;;13.00;99.90;;;;;;5072274;28;20039;-66
2022/06/07 04:43:09;;;;;;;15.07;11.75;;;13.00;99.90;;;;;;5085066;28;20039;-66
2022/06/07 04:45:37;;;;;;;13.68;12.07;;;13.00;99.90;;;;;;5074477;28;20489;-66
2022/06/07 04:48:04;;;;;;;13.82;11.45;;;13.00;99.90;;;;;;5068362;28;20119;-66
2022/06/07 04:50:30;;;;;;;14.50;12.68;;;13.10;99.90;;;;;;5072742;28;20614;-66
2022/06/07 04:52:55;;;;;;;15.23;13.00;;;13.00;99.90;;;;;;5091676;28;20031;-66
2022/06/07 04:55:21;;;;;;;15.93;12.68;;;13.00;99.90;;;;;;5091674;28;20035;-66
2022/06/07 04:57:47;;;;;;;14.45;13.00;;;13.20;99.90;;;;;;5072399;28;20715;-66
2022/06/07 05:00:15;;;;;;;14.27;11.75;;;13.00;99.90;;;;;;5074621;28;20642;-66
2022/06/07 05:02:44;;;;;;;15.13;12.13;;;13.00;99.90;;;;;;5087071;28;20401;-66
2022/06/07 05:05:12;;;;;;;14.23;12.82;;;13.00;99.90;;;;;;5087719;28;20544;-66
2022/06/07 05:07:37;;;;;;;13.38;12.00;;;13.10;99.90;;;;;;5087975;28;20044;-65
2022/06/07 05:10:09;;;;;;;16.65;12.20;;;13.00;99.90;;;;;;5073460;28;20417;-66
2022/06/07 05:12:35;;;;;;;14.10;12.60;;;13.10;99.90;;;;;;5071789;28;20032;-66
2022/06/07 05:15:02;;;;;;;16.95;12.43;;;13.00;99.90;;;;;;5073788;28;20072;-66
2022/06/07 05:17:28;;;;;;;18.38;12.38;;;13.00;99.90;;;;;;5073657;28;20040;-66
2022/06/07 05:19:54;;;;;;;15.80;13.10;;;13.10;99.90;;;;;;5073691;28;20043;-66
2022/06/07 05:22:19;;;;;;;17.88;13.57;;;13.20;99.90;;;;;;5093300;28;20028;-66
2022/06/07 05:24:45;;;;;;;14.27;12.13;;;13.10;99.90;;;;;;5089492;28;20177;-66
2022/06/07 05:27:18;;;;;;;14.93;13.13;;;13.10;99.90;;;;;;5090133;28;20051;-66
2022/06/07 05:29:48;;;;;;;17.90;13.88;;;13.00;99.90;;;;;;5070228;28;20042;-66
2022/06/07 05:32:15;;;;;;;19.13;13.77;;;13.10;99.90;;;;;;5103857;27;20044;-66
2022/06/07 05:34:41;;;;;;;16.58;12.77;;;13.40;99.90;;;;;;5064871;28;20896;-66
2022/06/07 05:37:06;;;;;;;14.68;13.18;;;13.00;99.90;;;;;;5092850;28;20031;-66
2022/06/07 05:39:32;;;;;;;17.08;13.75;;;13.10;99.90;;;;;;5105866;27;20049;-66
2022/06/07 05:42:00;;;;;;;14.55;11.95;;;13.00;99.90;;;;;;5091340;28;20048;-66
2022/06/07 05:44:27;;;;;;;15.98;12.98;;;13.00;99.90;;;;;;5071093;28;20044;-66
2022/06/07 05:46:53;;;;;;;13.50;11.05;;;13.00;99.90;;;;;;5086199;28;20075;-66
2022/06/07 05:49:20;;;;;;;18.17;12.27;;;13.00;99.90;;;;;;5071169;28;20052;-66
2022/06/07 05:51:46;;;;;;;11.73;9.85;;;13.00;99.90;;;;;;5072435;28;20378;-66
2022/06/07 05:54:13;;;;;;;16.73;10.13;;;12.90;99.90;;;;;;5073299;28;20050;-66
2022/06/07 05:56:39;;;;;;;11.82;10.25;;;12.90;99.90;;;;;;5088022;28;20105;-66
2022/06/07 05:59:05;;;;;;;13.02;9.65;;;12.80;99.90;;;;;;5088731;28;20034;-66
2022/06/07 06:01:32;;;;;;;15.10;10.20;;;12.80;99.90;;;;;;5071843;28;20049;-66
2022/06/07 06:03:58;;;;;;;11.00;9.02;;;12.80;99.90;;;;;;5087869;28;20044;-66
2022/06/07 06:06:24;;;;;;;13.82;9.48;;;12.80;99.90;;;;;;5068530;28;20123;-66
2022/06/07 06:11:36;;;;;;;11.93;8.63;;;12.80;99.90;;;;;;5065328;28;20489;-66
2022/06/07 06:14:03;;;;;;;10.20;8.13;;;12.70;99.90;;;;;;5066113;28;20036;-66
2022/06/07 06:16:29;;;;;;;17.88;9.30;;;12.70;99.90;;;;;;5087409;28;20055;-66
2022/06/07 06:18:58;;;;;;;11.93;8.73;;;12.70;99.90;;;;;;5069988;28;20575;-66
2022/06/07 06:21:28;;;;;;;11.43;8.60;;;12.90;99.90;;;;;;5090940;28;20059;-66
2022/06/07 06:23:58;;;;;;;11.98;9.30;;;12.90;99.90;;;;;;5104672;28;20050;-66
2022/06/07 06:26:24;;;;;;;11.07;8.10;;;12.70;99.90;;;;;;5088011;28;20467;-66
2022/06/07 06:28:50;;;;;;;9.95;8.85;;;12.60;99.90;;;;;;5088494;28;20039;-66
2022/06/07 06:31:16;;;;;;;13.43;9.32;;;12.80;99.90;;;;;;5087943;28;20039;-66
2022/06/07 06:33:48;;;;;;;15.38;9.07;;;12.80;99.90;;;;;;5074682;28;20048;-67
2022/06/07 06:36:16;;;;;;;16.58;9.45;;;12.60;99.90;;;;;;5072114;28;20107;-66
2022/06/07 06:38:45;;;;;;;16.13;9.20;;;12.70;99.90;;;;;;5044363;28;20040;-66
2022/06/07 06:41:14;;;;;;;11.20;7.10;;;12.70;99.90;;;;;;5077203;28;20486;-66
2022/06/07 06:43:40;;;;;;;11.00;6.63;;;12.60;99.90;;;;;;5092306;28;20436;-66
2022/06/07 06:46:13;;;;;;;16.17;5.57;;;12.60;99.90;;;;;;5073915;28;20071;-66
2022/06/07 06:48:39;;;;;;;7.80;6.25;;;12.60;99.90;;;;;;5092514;28;20040;-66
2022/06/07 06:51:08;;;;;;;10.07;5.40;;;12.60;99.90;;;;;;5094042;28;20032;-66
2022/06/07 06:53:34;;;;;;;11.07;6.28;;;12.60;99.90;;;;;;5075024;28;20043;-66
2022/06/07 06:56:02;;;;;;;11.05;6.20;;;12.70;99.90;;;;;;5074108;28;20032;-66
2022/06/07 06:58:28;;;;;;;14.43;7.10;;;12.60;99.90;;;;;;5090311;28;20048;-66
2022/06/07 07:01:26;;;;;;;13.73;7.25;;;12.70;99.90;;;;;;5093777;28;20046;-66
2022/06/07 07:03:52;;;;;;;15.25;7.40;;;12.70;99.90;;;;;;5079108;28;20055;-66
2022/06/07 07:06:19;;;;;;;18.13;7.82;;;12.70;99.90;;;;;;5092218;28;20040;-66
2022/06/07 07:08:46;;;;;;;13.90;7.90;;;12.80;99.90;;;;;;5076876;28;20043;-66
2022/06/07 07:11:20;;;;;;;11.05;7.53;;;12.80;99.90;;;;;;5074351;28;20046;-66
2022/06/07 07:13:48;;;;;;;16.35;7.55;;;12.80;99.90;;;;;;5108672;27;20041;-66
2022/06/07 07:16:18;;;;;;;11.40;8.95;;;12.90;99.90;;;;;;5069249;28;20036;-66
2022/06/07 07:18:45;;;;;;;12.95;7.05;;;13.00;99.90;;;;;;5094112;28;20039;-66
2022/06/07 07:21:14;;;;;;;11.73;7.18;;;12.90;99.90;;;;;;5077992;28;20032;-66
2022/06/07 07:23:40;;;;;;;9.85;5.57;;;12.90;99.90;;;;;;5071566;28;20039;-66
2022/06/07 07:26:09;;;;;;;12.05;6.70;;;13.00;99.90;;;;;;5076900;28;20039;-66
2022/06/07 07:28:35;;;;;;;22.15;9.55;;;13.10;99.90;;;;;;5075071;28;20040;-66
2022/06/07 07:31:04;;;;;;;12.40;5.70;;;13.10;99.90;;;;;;5074518;28;20120;-66
2022/06/07 07:33:31;;;;;;;8.77;4.07;;;13.00;99.90;;;;;;5074616;28;20036;-66
2022/06/07 07:35:56;;;;;;;8.38;4.10;;;13.10;99.90;;;;;;5097196;28;20155;-66
2022/06/07 07:38:23;;;;;;;7.85;3.67;;;13.00;99.90;;;;;;5110996;27;20135;-66
2022/06/07 07:40:50;;;;;;;10.00;3.28;;;12.90;99.90;;;;;;5075011;28;20050;-66
2022/06/07 07:43:16;;;;;;;6.85;3.45;;;13.00;99.90;;;;;;5058275;28;20044;-66
2022/06/07 07:45:41;;;;;;;10.80;3.90;;;13.00;99.90;;;;;;5110096;27;21375;-66
2022/06/07 07:48:07;;;;;;;7.28;2.97;;;12.90;99.90;;;;;;5096615;28;20032;-66
2022/06/07 07:50:33;;;;;;;7.68;3.58;;;12.90;99.90;;;;;;5075549;28;20105;-66
2022/06/07 07:52:59;;;;;;;7.20;3.60;;;13.10;99.90;;;;;;5087500;28;20039;-66
2022/06/07 07:55:25;;;;;;;13.77;4.93;;;12.90;99.90;;;;;;5061073;28;20046;-66
2022/06/07 07:57:51;;;;;;;8.05;3.60;;;12.90;99.90;;;;;;5076590;28;20412;-66
2022/06/07 08:00:17;;;;;;;8.35;3.17;;;12.90;99.90;;;;;;5097548;28;20491;-66
2022/06/07 08:02:43;;;;;;;7.80;3.50;;;12.90;99.90;;;;;;5093698;28;20032;-66
2022/06/07 08:05:10;;;;;;;11.43;3.47;;;12.90;99.90;;;;;;5076410;28;20050;-65
2022/06/07 08:07:36;;;;;;;11.18;3.78;;;12.90;99.90;;;;;;5073830;28;20072;-66
2022/06/07 08:10:04;;;;;;;9.48;3.42;;;12.90;99.90;;;;;;5077528;28;20482;-65
2022/06/07 08:12:31;;;;;;;8.30;3.90;;;12.90;99.90;;;;;;5090525;28;20513;-65
2022/06/07 08:14:58;;;;;;;7.07;3.88;;;12.90;99.90;;;;;;5076185;28;20043;-66
2022/06/07 08:17:25;;;;;;;6.07;3.22;;;12.90;99.90;;;;;;5096125;28;20046;-66
2022/06/07 08:19:50;;;;;;;8.93;3.50;;;12.90;99.90;;;;;;5092769;28;20115;-65
2022/06/07 08:22:16;;;;;;;10.50;4.18;;;12.90;99.90;;;;;;5092827;28;20147;-65
2022/06/07 08:24:42;;;;;;;7.22;4.00;;;13.00;99.90;;;;;;5111433;27;20051;-66
2022/06/07 08:27:09;;;;;;;10.60;4.18;;;13.00;99.90;;;;;;5089547;28;20090;-66
2022/06/07 08:29:34;;;;;;;8.32;3.95;;;13.20;99.90;;;;;;5077303;28;20398;-66
2022/06/07 08:32:00;;;;;;;13.40;5.30;;;13.00;99.90;;;;;;5077006;28;20040;-66
2022/06/07 08:37:56;;;;;;;7.30;4.13;;;13.10;99.90;;;;;;5091320;28;20047;-66
2022/06/07 08:40:03;;;;;;;11.55;4.78;;;13.10;99.90;;;;;;5077290;28;20047;-66
2022/06/07 08:42:34;;;;;;;7.07;4.88;;;13.30;99.90;;;;;;5093985;28;20048;-66
2022/06/07 08:45:05;;;;;;;11.55;5.55;;;13.20;99.90;;;;;;5065593;28;20068;-66
2022/06/07 08:47:52;;;;;;;12.45;5.60;;;13.20;99.90;;;;;;5071294;28;20044;-66
2022/06/07 08:50:28;;;;;;;7.82;5.47;;;13.20;99.90;;;;;;5078739;28;20553;-66
2022/06/07 08:52:57;;;;;;;8.43;5.00;;;13.20;99.90;;;;;;5073855;28;20079;-66
2022/06/07 08:55:36;;;;;;;16.88;5.63;;;13.30;99.90;;;;;;5063466;28;20050;-66
2022/06/07 08:58:16;;;;;;;10.18;4.53;;;13.20;99.90;;;;;;5066337;28;20052;-66
2022/06/07 09:00:48;;;;;;;15.23;5.97;;;13.20;99.90;;;;;;5072255;28;20048;-66
2022/06/07 09:03:51;;;;;;;11.52;4.47;;;13.20;99.90;;;;;;5089626;28;20040;-66
2022/06/07 09:06:24;;;;;;;15.50;5.40;;;13.20;99.90;;;;;;5080429;28;20068;-66
2022/06/07 09:08:57;;;;;;;19.30;4.88;;;13.20;99.90;;;;;;5075215;28;20074;-66
2022/06/07 09:14:18;;;;;;;11.30;5.40;;;13.20;99.90;;;;;;5091938;28;20406;-66
2022/06/07 09:16:44;;;;;;;11.68;5.30;;;13.10;99.90;;;;;;5076561;28;20046;-65
2022/06/07 09:19:15;;;;;;;8.63;4.60;;;13.20;99.90;;;;;;5092748;28;20043;-66
2022/06/07 09:21:43;;;;;;;8.73;4.80;;;13.50;99.90;;;;;;5091210;28;20481;-66
2022/06/07 09:24:22;;;;;;;11.63;4.63;;;13.10;99.90;;;;;;5092299;28;20425;-65
2022/06/07 09:26:48;;;;;;;11.48;5.10;;;13.10;99.90;;;;;;5091664;28;20078;-66
2022/06/07 09:29:17;;;;;;;9.13;4.88;;;13.10;99.90;;;;;;5068563;28;20125;-66
2022/06/07 09:31:45;;;;;;;11.35;4.10;;;13.20;99.90;;;;;;5108319;27;20402;-66
2022/06/07 09:34:23;;;;;;;9.68;3.97;;;13.10;99.90;;;;;;5069685;28;20037;-66
2022/06/07 09:37:03;;;;;;;6.78;2.75;;;13.20;99.90;;;;;;5088437;28;20031;-66
2022/06/07 09:39:36;;;;;;;10.30;2.85;;;13.20;99.90;;;;;;5089787;28;20044;-66
2022/06/07 09:42:20;;;;;;;4.97;1.63;;;13.20;99.90;;;;;;5077703;28;20047;-66
2022/06/07 09:45:11;;;;;;;6.30;1.20;;;13.30;99.90;;;;;;5092758;28;20031;-66
2022/06/07 09:47:38;;;;;;;4.97;0.98;;;13.30;99.90;;;;;;5038720;28;20102;-66
2022/06/07 09:50:21;;;;;;;2.58;0.95;;;13.40;99.90;;;;;;5087945;28;20428;-66
2022/06/07 09:52:55;;;;;;;5.18;1.10;;;13.40;99.90;;;;;;5074999;28;20410;-66
2022/06/07 09:55:44;;;;;;;6.18;1.20;;;13.40;99.90;;;;;;5071958;28;20032;-66
2022/06/07 09:58:42;;;;;;;5.85;1.23;;;13.40;99.90;;;;;;5063720;28;20067;-66
2022/06/07 10:01:32;;;;;;;3.55;1.20;;;13.50;99.90;;;;;;5059633;28;20044;-66
2022/06/07 10:04:29;;;;;;;4.82;1.73;;;13.40;99.90;;;;;;5087925;27;20134;-66
2022/06/07 10:07:02;;;;;;;4.53;1.95;;;13.40;99.90;;;;;;5091616;28;20077;-66
2022/06/07 10:09:59;;;;;;;3.90;1.23;;;13.40;99.90;;;;;;5106296;27;20052;-66
2022/06/07 10:12:30;;;;;;;8.95;1.30;;;13.40;99.90;;;;;;5069199;28;20051;-66
2022/06/07 10:15:08;;;;;;;1.88;1.00;;;13.40;99.90;;;;;;5085612;28;20047;-66
2022/06/07 10:18:04;;;;;;;4.43;1.08;;;13.40;99.90;;;;;;5069396;28;21455;-66
2022/06/07 10:21:08;;;;;;;4.72;1.02;;;13.50;99.90;;;;;;5091588;28;20142;-66
2022/06/07 10:23:48;;;;;;;1.40;0.73;;;13.50;99.90;;;;;;5078549;28;20036;-66
2022/06/07 10:26:34;;;;;;;2.25;1.08;;;13.50;99.90;;;;;;5090041;28;20044;-66
2022/06/07 10:29:40;;;;;;;2.03;0.82;;;13.60;99.90;;;;;;5080049;28;20440;-66
2022/06/07 10:32:15;;;;;;;2.97;1.00;;;13.50;99.90;;;;;;5056437;28;20144;-66
2022/06/07 10:34:50;;;;;;;3.78;1.13;;;13.40;99.90;;;;;;5092279;28;20040;-66
2022/06/07 10:37:37;;;;;;;5.07;1.17;;;13.40;99.90;;;;;;5094529;28;20498;-66
2022/06/07 10:40:24;;;;;;;4.40;0.65;;;13.40;99.90;;;;;;5102300;27;20044;-66
2022/06/07 10:43:04;;;;;;;3.40;0.90;;;13.40;99.90;;;;;;5077949;28;20040;-66
2022/06/07 10:45:33;;;;;;;2.20;0.68;;;13.50;99.90;;;;;;5077494;28;20055;-66
2022/06/07 10:48:09;;;;;;;5.75;1.90;;;13.40;99.90;;;;;;5091553;28;20075;-66
2022/06/07 10:50:48;;;;;;;3.70;0.70;;;13.50;99.90;;;;;;5106063;27;20394;-66
2022/06/07 10:53:33;;;;;;;1.40;0.50;;;13.50;99.90;;;;;;5091474;28;20131;-66
2022/06/07 10:56:07;;;;;;;2.88;0.60;;;13.60;99.90;;;;;;5092704;28;20039;-66
2022/06/07 10:58:39;;;;;;;2.78;0.40;;;13.50;99.90;;;;;;5093021;28;20039;-66
2022/06/07 11:01:37;;;;;;;3.95;0.50;;;13.50;99.90;;;;;;5094676;28;20136;-66
2022/06/07 11:10:15;;;;;;;3.63;0.73;;;13.50;99.90;;;;;;5091876;28;20047;-66
2022/06/07 11:12:59;;;;;;;1.52;0.40;;;13.50;99.90;;;;;;5077373;28;20039;-66
2022/06/07 11:15:32;;;;;;;0.70;0.30;;;13.50;99.90;;;;;;5095824;28;20042;-66
2022/06/07 11:18:17;;;;;;;1.60;0.45;;;13.50;99.90;;;;;;5092642;28;20044;-66
2022/06/07 11:21:01;;;;;;;2.50;0.55;;;13.40;99.90;;;;;;5095108;28;20032;-66
2022/06/07 11:23:31;;;;;;;4.00;0.70;;;13.50;99.90;;;;;;5092243;28;20036;-66
2022/06/07 11:26:02;;;;;;;3.28;0.63;;;13.50;99.90;;;;;;5062265;28;20065;-66
2022/06/07 11:28:33;;;;;;;4.63;0.98;;;13.40;99.90;;;;;;5093201;28;20059;-66
2022/06/07 11:31:02;;;;;;;4.65;0.60;;;13.50;99.90;;;;;;5093143;28;20032;-66
2022/06/07 11:33:39;;;;;;;6.85;0.70;;;13.50;99.90;;;;;;5092656;28;20135;-66
2022/06/07 11:36:28;;;;;;;3.88;0.80;;;13.50;99.90;;;;;;5076420;28;20044;-66
2022/06/07 11:38:54;;;;;;;4.95;0.80;;;13.40;99.90;;;;;;5075878;28;20078;-66
2022/06/07 11:41:38;;;;;;;5.43;0.77;;;13.40;99.90;;;;;;5077461;28;20067;-66
2022/06/07 11:44:10;;;;;;;6.13;0.80;;;13.30;99.90;;;;;;5072274;28;20101;-66
2022/06/07 11:46:39;;;;;;;6.05;0.75;;;13.30;99.90;;;;;;5073356;28;20048;-66
2022/06/07 11:49:20;;;;;;;5.93;1.13;;;13.20;99.90;;;;;;5089489;28;20490;-66
2022/06/07 11:52:11;;;;;;;5.68;1.10;;;13.30;99.90;;;;;;5091165;28;20040;-66
2022/06/07 11:54:46;;;;;;;4.10;0.90;;;13.20;99.90;;;;;;5075688;28;20039;-66
2022/06/07 11:57:27;;;;;;;4.43;0.90;;;13.10;99.90;;;;;;5093199;28;20044;-66
2022/06/07 12:00:03;;;;;;;4.15;0.77;;;13.20;99.90;;;;;;5093787;28;20502;-66
2022/06/07 12:02:33;;;;;;;6.40;0.85;;;13.20;99.90;;;;;;5091178;28;20486;-66
2022/06/07 12:05:19;;;;;;;2.70;0.50;;;13.30;99.90;;;;;;5071248;28;20167;-66
2022/06/07 12:07:52;;;;;;;1.60;0.52;;;13.30;99.90;;;;;;5075658;28;20122;-66
2022/06/07 12:10:22;;;;;;;2.70;0.73;;;13.30;99.90;;;;;;5071545;28;20050;-66
2022/06/07 12:13:01;;;;;;;4.30;0.55;;;13.40;99.90;;;;;;5083804;28;20040;-66
2022/06/07 12:15:39;;;;;;;1.33;0.47;;;13.30;99.90;;;;;;5071778;28;20474;-66
2022/06/07 12:18:26;;;;;;;3.88;0.65;;;13.40;99.90;;;;;;5092836;28;20076;-66
2022/06/07 12:21:06;;;;;;;4.45;1.00;;;13.40;99.90;;;;;;5091298;28;20520;-66
2022/06/07 12:23:35;;;;;;;4.90;1.30;;;13.40;99.90;;;;;;5075221;28;20085;-66
2022/06/07 12:26:15;;;;;;;3.47;1.67;;;13.40;99.90;;;;;;5093724;28;20047;-66
2022/06/07 12:28:50;;;;;;;4.45;1.85;;;13.40;99.90;;;;;;5066440;28;20040;-66
2022/06/07 12:31:25;;;;;;;4.28;1.92;;;13.40;99.90;;;;;;5072145;28;20548;-66
2022/06/07 12:33:53;;;;;;;5.90;1.87;;;13.40;99.90;;;;;;5091416;28;20040;-66
2022/06/07 12:36:23;;;;;;;5.07;1.92;;;13.40;99.90;;;;;;5091340;28;20558;-66
2022/06/07 12:38:50;;;;;;;7.60;2.38;;;13.60;99.90;;;;;;5073779;28;20036;-66
2022/06/07 12:41:21;;;;;;;10.02;2.25;;;13.40;99.90;;;;;;5094389;28;20505;-66
2022/06/07 12:43:52;;;;;;;8.55;2.33;;;13.40;99.90;;;;;;5089039;28;20036;-66
2022/06/07 12:46:20;;;;;;;12.55;2.63;;;13.50;99.90;;;;;;5092213;28;20040;-66
2022/06/07 12:48:46;;;;;;;8.40;2.22;;;13.40;99.90;;;;;;5092449;28;20040;-66
2022/06/07 12:51:24;;;;;;;8.90;2.72;;;13.40;99.90;;;;;;5071437;28;20482;-66
2022/06/07 12:54:17;;;;;;;6.25;2.50;;;13.50;99.90;;;;;;5092534;28;20081;-65
2022/06/07 12:56:44;;;;;;;6.18;2.00;;;13.50;99.90;;;;;;5102946;27;20048;-66
2022/06/07 12:59:22;;;;;;;9.68;3.03;;;13.60;99.90;;;;;;5070649;28;20055;-66
2022/06/07 13:01:50;;;;;;;7.82;2.35;;;13.70;99.90;;;;;;5092073;28;20097;-66
2022/06/07 13:04:36;;;;;;;9.55;2.58;;;13.70;99.90;;;;;;5093953;28;20110;-66
2022/06/07 13:07:20;;;;;;;6.95;2.22;;;13.70;99.90;;;;;;5072581;28;20119;-66
2022/06/07 13:10:04;;;;;;;7.95;2.35;;;13.80;99.90;;;;;;5073368;28;20080;-66
2022/06/07 13:12:31;;;;;;;6.97;1.90;;;13.80;99.90;;;;;;5066868;28;20043;-66
2022/06/07 13:14:59;;;;;;;5.70;2.05;;;13.90;99.90;;;;;;5065429;28;20071;-65